sensor_id;sensor_type;location;lat;lon;timestamp;temperature;humidity
7654;DHT22;3869;48.406;10.774;2023-12-20T00:01:22;5.50;99.90
7654;DHT22;3869;48.406;10.774;2023-12-20T00:03:51;5.50;99.90
7654;DHT22;3869;48.406;10.774;2023-12-20T00:06:19;5.50;99.90
7654;DHT22;3869;48.406;10.774;2023-12-20T00:08:47;5.50;99.90
7654;DHT22;3869;48.406;10.774;2023-12-20T00:11:15;5.50;99.90
7654;DHT22;3869;48.406;10.774;2023-12-20T00:13:44;5.50;99.90
7654;DHT22;3869;48.406;10.774;2023-12-20T00:16:17;5.50;99.90
7654;DHT22;3869;48.406;10.774;2023-12-20T00:18:46;5.50;99.90
7654;DHT22;3869;48.406;10.774;2023-12-20T00:21:14;5.50;99.90
7654;DHT22;3869;48.406;10.774;2023-12-20T00:23:42;5.50;99.90
7654;DHT22;3869;48.406;10.774;2023-12-20T00:26:10;5.60;99.90
7654;DHT22;3869;48.406;10.774;2023-12-20T00:28:38;5.60;99.90
7654;DHT22;3869;48.406;10.774;2023-12-20T00:31:07;5.60;99.90
7654;DHT22;3869;48.406;10.774;2023-12-20T00:33:35;5.60;99.90
7654;DHT22;3869;48.406;10.774;2023-12-20T00:36:04;5.60;99.90
7654;DHT22;3869;48.406;10.774;2023-12-20T00:38:32;5.60;99.90
7654;DHT22;3869;48.406;10.774;2023-12-20T00:41:00;5.60;99.90
7654;DHT22;3869;48.406;10.774;2023-12-20T00:43:29;5.60;99.90
7654;DHT22;3869;48.406;10.774;2023-12-20T00:45:57;5.60;99.90
7654;DHT22;3869;48.406;10.774;2023-12-20T00:48:28;5.60;99.90
7654;DHT22;3869;48.406;10.774;2023-12-20T00:50:57;5.70;99.90
7654;DHT22;3869;48.406;10.774;2023-12-20T00:53:25;5.70;99.90
7654;DHT22;3869;48.406;10.774;2023-12-20T00:55:53;5.70;99.90
7654;DHT22;3869;48.406;10.774;2023-12-20T00:58:21;5.70;99.90
7654;DHT22;3869;48.406;10.774;2023-12-20T01:00:49;5.70;99.90
7654;DHT22;3869;48.406;10.774;2023-12-20T01:03:18;5.70;99.90
7654;DHT22;3869;48.406;10.774;2023-12-20T01:05:47;5.70;99.90
7654;DHT22;3869;48.406;10.774;2023-12-20T01:08:15;5.70;99.90
7654;DHT22;3869;48.406;10.774;2023-12-20T01:10:43;5.80;99.90
7654;DHT22;3869;48.406;10.774;2023-12-20T01:13:11;5.80;99.90
7654;DHT22;3869;48.406;10.774;2023-12-20T01:15:39;5.80;99.90
7654;DHT22;3869;48.406;10.774;2023-12-20T01:18:08;5.80;99.90
7654;DHT22;3869;48.406;10.774;2023-12-20T01:20:36;5.80;99.90
7654;DHT22;3869;48.406;10.774;2023-12-20T01:23:06;5.80;99.90
7654;DHT22;3869;48.406;10.774;2023-12-20T01:25:34;5.80;99.90
7654;DHT22;3869;48.406;10.774;2023-12-20T01:28:02;5.80;99.90
7654;DHT22;3869;48.406;10.774;2023-12-20T01:30:30;5.80;99.90
7654;DHT22;3869;48.406;10.774;2023-12-20T01:33:00;5.80;99.90
7654;DHT22;3869;48.406;10.774;2023-12-20T01:35:28;5.80;99.90
7654;DHT22;3869;48.406;10.774;2023-12-20T01:37:56;5.80;99.90
7654;DHT22;3869;48.406;10.774;2023-12-20T01:40:25;5.80;99.90
7654;DHT22;3869;48.406;10.774;2023-12-20T01:43:00;5.80;99.90
7654;DHT22;3869;48.406;10.774;2023-12-20T01:45:28;5.80;99.90
7654;DHT22;3869;48.406;10.774;2023-12-20T01:47:57;5.80;99.90
7654;DHT22;3869;48.406;10.774;2023-12-20T01:50:27;5.70;99.90
7654;DHT22;3869;48.406;10.774;2023-12-20T01:52:56;5.70;99.90
7654;DHT22;3869;48.406;10.774;2023-12-20T01:55:27;5.70;99.90
7654;DHT22;3869;48.406;10.774;2023-12-20T01:57:58;5.70;99.90
7654;DHT22;3869;48.406;10.774;2023-12-20T02:00:28;5.70;99.90
7654;DHT22;3869;48.406;10.774;2023-12-20T02:02:58;5.70;99.90
7654;DHT22;3869;48.406;10.774;2023-12-20T02:05:29;5.70;99.90
7654;DHT22;3869;48.406;10.774;2023-12-20T02:07:58;5.70;99.90
7654;DHT22;3869;48.406;10.774;2023-12-20T02:10:27;5.70;99.90
7654;DHT22;3869;48.406;10.774;2023-12-20T02:12:56;5.70;99.90
7654;DHT22;3869;48.406;10.774;2023-12-20T02:15:24;5.70;99.90
7654;DHT22;3869;48.406;10.774;2023-12-20T02:21:15;5.70;99.90
7654;DHT22;3869;48.406;10.774;2023-12-20T02:23:44;5.70;99.90
7654;DHT22;3869;48.406;10.774;2023-12-20T02:26:13;5.70;99.90
7654;DHT22;3869;48.406;10.774;2023-12-20T02:28:41;5.70;99.90
7654;DHT22;3869;48.406;10.774;2023-12-20T02:31:09;5.70;99.90
7654;DHT22;3869;48.406;10.774;2023-12-20T02:33:37;5.70;99.90
7654;DHT22;3869;48.406;10.774;2023-12-20T02:36:06;5.70;99.90
7654;DHT22;3869;48.406;10.774;2023-12-20T02:38:34;5.70;99.90
7654;DHT22;3869;48.406;10.774;2023-12-20T02:41:04;5.80;99.90
7654;DHT22;3869;48.406;10.774;2023-12-20T02:43:32;5.80;99.90
7654;DHT22;3869;48.406;10.774;2023-12-20T02:46:00;5.80;99.90
7654;DHT22;3869;48.406;10.774;2023-12-20T02:48:28;5.80;99.90
7654;DHT22;3869;48.406;10.774;2023-12-20T02:50:56;5.80;99.90
7654;DHT22;3869;48.406;10.774;2023-12-20T02:53:24;5.80;99.90
7654;DHT22;3869;48.406;10.774;2023-12-20T02:55:52;5.80;99.90
7654;DHT22;3869;48.406;10.774;2023-12-20T02:58:21;5.80;99.90
7654;DHT22;3869;48.406;10.774;2023-12-20T03:00:49;5.70;99.90
7654;DHT22;3869;48.406;10.774;2023-12-20T03:03:18;5.70;99.90
7654;DHT22;3869;48.406;10.774;2023-12-20T03:05:46;5.60;99.90
7654;DHT22;3869;48.406;10.774;2023-12-20T03:08:14;5.60;99.90
7654;DHT22;3869;48.406;10.774;2023-12-20T03:10:42;5.50;99.90
7654;DHT22;3869;48.406;10.774;2023-12-20T03:13:10;5.60;99.90
7654;DHT22;3869;48.406;10.774;2023-12-20T03:15:40;5.50;99.90
7654;DHT22;3869;48.406;10.774;2023-12-20T03:18:08;5.50;99.90
7654;DHT22;3869;48.406;10.774;2023-12-20T03:20:36;5.50;99.90
7654;DHT22;3869;48.406;10.774;2023-12-20T03:23:04;5.40;99.90
7654;DHT22;3869;48.406;10.774;2023-12-20T03:25:32;5.40;99.90
7654;DHT22;3869;48.406;10.774;2023-12-20T03:28:00;5.30;99.90
7654;DHT22;3869;48.406;10.774;2023-12-20T03:30:28;5.30;99.90
7654;DHT22;3869;48.406;10.774;2023-12-20T03:32:57;5.20;99.90
7654;DHT22;3869;48.406;10.774;2023-12-20T03:35:25;5.20;99.90
7654;DHT22;3869;48.406;10.774;2023-12-20T03:37:53;5.20;99.90
7654;DHT22;3869;48.406;10.774;2023-12-20T03:40:21;5.10;99.90
7654;DHT22;3869;48.406;10.774;2023-12-20T03:42:50;5.10;99.90
7654;DHT22;3869;48.406;10.774;2023-12-20T03:45:18;5.10;99.90
7654;DHT22;3869;48.406;10.774;2023-12-20T03:47:46;5.10;99.90
7654;DHT22;3869;48.406;10.774;2023-12-20T03:50:16;5.00;99.90
7654;DHT22;3869;48.406;10.774;2023-12-20T03:52:44;5.10;99.90
7654;DHT22;3869;48.406;10.774;2023-12-20T03:55:12;5.10;99.90
7654;DHT22;3869;48.406;10.774;2023-12-20T03:57:40;5.00;99.90
7654;DHT22;3869;48.406;10.774;2023-12-20T04:00:10;4.90;99.90
7654;DHT22;3869;48.406;10.774;2023-12-20T04:02:38;4.90;99.90
7654;DHT22;3869;48.406;10.774;2023-12-20T04:05:07;4.90;99.90
7654;DHT22;3869;48.406;10.774;2023-12-20T04:07:37;4.90;99.90
7654;DHT22;3869;48.406;10.774;2023-12-20T04:10:06;4.90;99.90
7654;DHT22;3869;48.406;10.774;2023-12-20T04:12:35;4.80;99.90
7654;DHT22;3869;48.406;10.774;2023-12-20T04:15:04;4.80;99.90
7654;DHT22;3869;48.406;10.774;2023-12-20T04:17:36;4.80;99.90
7654;DHT22;3869;48.406;10.774;2023-12-20T04:20:05;4.80;99.90
7654;DHT22;3869;48.406;10.774;2023-12-20T04:22:34;4.80;99.90
7654;DHT22;3869;48.406;10.774;2023-12-20T04:25:03;4.80;99.90
7654;DHT22;3869;48.406;10.774;2023-12-20T04:27:32;4.80;99.90
7654;DHT22;3869;48.406;10.774;2023-12-20T04:30:00;4.80;99.90
7654;DHT22;3869;48.406;10.774;2023-12-20T04:32:28;4.80;99.90
7654;DHT22;3869;48.406;10.774;2023-12-20T04:34:56;4.80;99.90
7654;DHT22;3869;48.406;10.774;2023-12-20T04:37:24;4.80;99.90
7654;DHT22;3869;48.406;10.774;2023-12-20T04:39:52;4.80;99.90
7654;DHT22;3869;48.406;10.774;2023-12-20T04:42:21;4.80;99.90
7654;DHT22;3869;48.406;10.774;2023-12-20T04:44:49;4.80;99.90
7654;DHT22;3869;48.406;10.774;2023-12-20T04:47:17;4.80;99.90
7654;DHT22;3869;48.406;10.774;2023-12-20T04:49:45;4.80;99.90
7654;DHT22;3869;48.406;10.774;2023-12-20T04:52:14;4.80;99.90
7654;DHT22;3869;48.406;10.774;2023-12-20T04:54:42;4.80;99.90
7654;DHT22;3869;48.406;10.774;2023-12-20T04:57:11;4.80;99.90
7654;DHT22;3869;48.406;10.774;2023-12-20T04:59:40;4.90;99.90
7654;DHT22;3869;48.406;10.774;2023-12-20T05:02:08;4.90;99.90
7654;DHT22;3869;48.406;10.774;2023-12-20T05:04:36;4.90;99.90
7654;DHT22;3869;48.406;10.774;2023-12-20T05:07:04;4.90;99.90
7654;DHT22;3869;48.406;10.774;2023-12-20T05:09:33;4.90;99.90
7654;DHT22;3869;48.406;10.774;2023-12-20T05:12:01;4.90;99.90
7654;DHT22;3869;48.406;10.774;2023-12-20T05:14:29;4.90;99.90
7654;DHT22;3869;48.406;10.774;2023-12-20T05:16:58;4.80;99.90
7654;DHT22;3869;48.406;10.774;2023-12-20T05:19:27;4.80;99.90
7654;DHT22;3869;48.406;10.774;2023-12-20T05:21:55;4.80;99.90
7654;DHT22;3869;48.406;10.774;2023-12-20T05:24:23;4.80;99.90
7654;DHT22;3869;48.406;10.774;2023-12-20T05:26:51;4.80;99.90
7654;DHT22;3869;48.406;10.774;2023-12-20T05:29:20;4.80;99.90
7654;DHT22;3869;48.406;10.774;2023-12-20T05:31:48;4.80;99.90
7654;DHT22;3869;48.406;10.774;2023-12-20T05:34:17;4.80;99.90
7654;DHT22;3869;48.406;10.774;2023-12-20T05:36:46;4.80;99.90
7654;DHT22;3869;48.406;10.774;2023-12-20T05:39:14;4.80;99.90
7654;DHT22;3869;48.406;10.774;2023-12-20T05:41:42;4.80;99.90
7654;DHT22;3869;48.406;10.774;2023-12-20T05:44:10;4.80;99.90
7654;DHT22;3869;48.406;10.774;2023-12-20T05:46:38;4.80;99.90
7654;DHT22;3869;48.406;10.774;2023-12-20T05:49:06;4.80;99.90
7654;DHT22;3869;48.406;10.774;2023-12-20T05:51:36;4.70;99.90
7654;DHT22;3869;48.406;10.774;2023-12-20T05:54:04;4.70;99.90
7654;DHT22;3869;48.406;10.774;2023-12-20T05:56:32;4.70;99.90
7654;DHT22;3869;48.406;10.774;2023-12-20T05:59:00;4.70;99.90
7654;DHT22;3869;48.406;10.774;2023-12-20T06:01:28;4.70;99.90
7654;DHT22;3869;48.406;10.774;2023-12-20T06:03:56;4.70;99.90
7654;DHT22;3869;48.406;10.774;2023-12-20T06:06:24;4.70;99.90
7654;DHT22;3869;48.406;10.774;2023-12-20T06:08:53;4.70;99.90
7654;DHT22;3869;48.406;10.774;2023-12-20T06:11:21;4.80;99.90
7654;DHT22;3869;48.406;10.774;2023-12-20T06:13:49;4.80;99.90
7654;DHT22;3869;48.406;10.774;2023-12-20T06:16:18;4.80;99.90
7654;DHT22;3869;48.406;10.774;2023-12-20T06:18:47;4.80;99.90
7654;DHT22;3869;48.406;10.774;2023-12-20T06:21:15;4.80;99.90
7654;DHT22;3869;48.406;10.774;2023-12-20T06:23:43;4.80;99.90
7654;DHT22;3869;48.406;10.774;2023-12-20T06:26:12;4.80;99.90
7654;DHT22;3869;48.406;10.774;2023-12-20T06:28:40;4.80;99.90
7654;DHT22;3869;48.406;10.774;2023-12-20T06:31:08;4.80;99.90
7654;DHT22;3869;48.406;10.774;2023-12-20T06:33:36;4.80;99.90
7654;DHT22;3869;48.406;10.774;2023-12-20T06:36:07;4.80;99.90
7654;DHT22;3869;48.406;10.774;2023-12-20T06:38:35;4.80;99.90
7654;DHT22;3869;48.406;10.774;2023-12-20T06:41:03;4.80;99.90
7654;DHT22;3869;48.406;10.774;2023-12-20T06:43:33;4.80;99.90
7654;DHT22;3869;48.406;10.774;2023-12-20T06:46:15;4.80;99.90
7654;DHT22;3869;48.406;10.774;2023-12-20T06:48:44;4.80;99.90
7654;DHT22;3869;48.406;10.774;2023-12-20T06:51:13;4.80;99.90
7654;DHT22;3869;48.406;10.774;2023-12-20T06:53:42;4.80;99.90
7654;DHT22;3869;48.406;10.774;2023-12-20T06:56:11;4.80;99.90
7654;DHT22;3869;48.406;10.774;2023-12-20T06:58:45;4.70;99.90
7654;DHT22;3869;48.406;10.774;2023-12-20T07:01:14;4.70;99.90
7654;DHT22;3869;48.406;10.774;2023-12-20T07:03:43;4.70;99.90
7654;DHT22;3869;48.406;10.774;2023-12-20T07:06:11;4.70;99.90
7654;DHT22;3869;48.406;10.774;2023-12-20T07:08:39;4.70;99.90
7654;DHT22;3869;48.406;10.774;2023-12-20T07:11:07;4.70;99.90
7654;DHT22;3869;48.406;10.774;2023-12-20T07:13:35;4.70;99.90
7654;DHT22;3869;48.406;10.774;2023-12-20T07:16:05;4.70;99.90
7654;DHT22;3869;48.406;10.774;2023-12-20T07:18:33;4.60;99.90
7654;DHT22;3869;48.406;10.774;2023-12-20T07:21:01;4.60;99.90
7654;DHT22;3869;48.406;10.774;2023-12-20T07:23:29;4.60;99.90
7654;DHT22;3869;48.406;10.774;2023-12-20T07:25:57;4.60;99.90
7654;DHT22;3869;48.406;10.774;2023-12-20T07:28:25;4.60;99.90
7654;DHT22;3869;48.406;10.774;2023-12-20T07:30:53;4.60;99.90
7654;DHT22;3869;48.406;10.774;2023-12-20T07:33:23;4.60;99.90
7654;DHT22;3869;48.406;10.774;2023-12-20T07:35:51;4.60;99.90
7654;DHT22;3869;48.406;10.774;2023-12-20T07:38:19;4.60;99.90
7654;DHT22;3869;48.406;10.774;2023-12-20T07:40:47;4.70;99.90
7654;DHT22;3869;48.406;10.774;2023-12-20T07:43:15;4.60;99.90
7654;DHT22;3869;48.406;10.774;2023-12-20T07:45:43;4.70;99.90
7654;DHT22;3869;48.406;10.774;2023-12-20T07:48:12;4.70;99.90
7654;DHT22;3869;48.406;10.774;2023-12-20T07:50:41;4.70;99.90
7654;DHT22;3869;48.406;10.774;2023-12-20T07:53:09;4.70;99.90
7654;DHT22;3869;48.406;10.774;2023-12-20T07:55:38;4.70;99.90
7654;DHT22;3869;48.406;10.774;2023-12-20T07:58:06;4.80;99.90
7654;DHT22;3869;48.406;10.774;2023-12-20T08:00:34;4.80;99.90
7654;DHT22;3869;48.406;10.774;2023-12-20T08:03:03;4.80;99.90
7654;DHT22;3869;48.406;10.774;2023-12-20T08:05:31;4.70;99.90
7654;DHT22;3869;48.406;10.774;2023-12-20T08:08:00;4.80;99.90
7654;DHT22;3869;48.406;10.774;2023-12-20T08:10:28;4.70;99.90
7654;DHT22;3869;48.406;10.774;2023-12-20T08:12:56;4.70;99.90
7654;DHT22;3869;48.406;10.774;2023-12-20T08:15:24;4.80;99.90
7654;DHT22;3869;48.406;10.774;2023-12-20T08:17:52;4.80;99.90
7654;DHT22;3869;48.406;10.774;2023-12-20T08:20:21;4.80;99.90
7654;DHT22;3869;48.406;10.774;2023-12-20T08:23:04;4.80;99.90
7654;DHT22;3869;48.406;10.774;2023-12-20T08:25:32;4.80;99.90
7654;DHT22;3869;48.406;10.774;2023-12-20T08:28:01;4.80;99.90
7654;DHT22;3869;48.406;10.774;2023-12-20T08:30:29;4.90;99.90
7654;DHT22;3869;48.406;10.774;2023-12-20T08:32:59;4.80;99.90
7654;DHT22;3869;48.406;10.774;2023-12-20T08:35:27;4.80;99.90
7654;DHT22;3869;48.406;10.774;2023-12-20T08:37:56;4.90;99.90
7654;DHT22;3869;48.406;10.774;2023-12-20T08:40:25;4.90;99.90
7654;DHT22;3869;48.406;10.774;2023-12-20T08:42:53;5.00;99.90
7654;DHT22;3869;48.406;10.774;2023-12-20T08:45:22;5.00;99.90
7654;DHT22;3869;48.406;10.774;2023-12-20T08:47:50;5.00;99.90
7654;DHT22;3869;48.406;10.774;2023-12-20T08:50:19;5.00;99.90
7654;DHT22;3869;48.406;10.774;2023-12-20T08:52:47;5.10;99.90
7654;DHT22;3869;48.406;10.774;2023-12-20T08:55:15;5.20;99.90
7654;DHT22;3869;48.406;10.774;2023-12-20T08:57:46;5.20;99.90
7654;DHT22;3869;48.406;10.774;2023-12-20T09:00:15;5.20;99.90
7654;DHT22;3869;48.406;10.774;2023-12-20T09:02:43;5.30;99.90
7654;DHT22;3869;48.406;10.774;2023-12-20T09:05:11;5.30;99.90
7654;DHT22;3869;48.406;10.774;2023-12-20T09:07:39;5.40;99.90
7654;DHT22;3869;48.406;10.774;2023-12-20T09:10:08;5.50;99.90
7654;DHT22;3869;48.406;10.774;2023-12-20T09:12:36;5.50;99.90
7654;DHT22;3869;48.406;10.774;2023-12-20T09:15:08;5.60;99.90
7654;DHT22;3869;48.406;10.774;2023-12-20T09:17:36;5.50;99.90
7654;DHT22;3869;48.406;10.774;2023-12-20T09:20:05;5.60;99.90
7654;DHT22;3869;48.406;10.774;2023-12-20T09:22:35;5.70;99.90
7654;DHT22;3869;48.406;10.774;2023-12-20T09:25:05;5.80;99.90
7654;DHT22;3869;48.406;10.774;2023-12-20T09:27:33;6.00;99.90
7654;DHT22;3869;48.406;10.774;2023-12-20T09:30:02;6.00;99.90
7654;DHT22;3869;48.406;10.774;2023-12-20T09:32:33;6.00;99.90
7654;DHT22;3869;48.406;10.774;2023-12-20T09:35:01;6.20;99.90
7654;DHT22;3869;48.406;10.774;2023-12-20T09:37:30;6.30;99.90
7654;DHT22;3869;48.406;10.774;2023-12-20T09:39:58;6.30;99.90
7654;DHT22;3869;48.406;10.774;2023-12-20T09:42:35;6.30;99.90
7654;DHT22;3869;48.406;10.774;2023-12-20T09:45:08;6.20;99.90
7654;DHT22;3869;48.406;10.774;2023-12-20T09:47:38;6.10;99.90
7654;DHT22;3869;48.406;10.774;2023-12-20T09:50:07;6.10;99.90
7654;DHT22;3869;48.406;10.774;2023-12-20T09:52:36;6.10;99.90
7654;DHT22;3869;48.406;10.774;2023-12-20T09:55:05;6.10;99.90
7654;DHT22;3869;48.406;10.774;2023-12-20T09:57:34;6.00;99.90
7654;DHT22;3869;48.406;10.774;2023-12-20T10:00:03;6.10;99.90
7654;DHT22;3869;48.406;10.774;2023-12-20T10:02:31;6.00;99.90
7654;DHT22;3869;48.406;10.774;2023-12-20T10:05:02;6.00;99.90
7654;DHT22;3869;48.406;10.774;2023-12-20T10:07:31;6.10;99.90
7654;DHT22;3869;48.406;10.774;2023-12-20T10:09:59;6.10;99.90
7654;DHT22;3869;48.406;10.774;2023-12-20T10:12:27;6.00;99.90
7654;DHT22;3869;48.406;10.774;2023-12-20T10:14:56;6.00;99.90
7654;DHT22;3869;48.406;10.774;2023-12-20T10:17:27;6.10;99.90
7654;DHT22;3869;48.406;10.774;2023-12-20T10:19:56;6.20;99.90
7654;DHT22;3869;48.406;10.774;2023-12-20T10:22:26;6.20;99.90
7654;DHT22;3869;48.406;10.774;2023-12-20T10:24:56;6.20;99.90
7654;DHT22;3869;48.406;10.774;2023-12-20T10:27:24;6.20;99.90
7654;DHT22;3869;48.406;10.774;2023-12-20T10:29:52;6.20;99.90
7654;DHT22;3869;48.406;10.774;2023-12-20T10:32:25;6.10;99.90
7654;DHT22;3869;48.406;10.774;2023-12-20T10:34:54;6.00;99.90
7654;DHT22;3869;48.406;10.774;2023-12-20T10:37:23;6.00;99.90
7654;DHT22;3869;48.406;10.774;2023-12-20T10:39:54;5.90;99.90
7654;DHT22;3869;48.406;10.774;2023-12-20T10:42:26;5.90;99.90
7654;DHT22;3869;48.406;10.774;2023-12-20T10:44:55;5.90;99.90
7654;DHT22;3869;48.406;10.774;2023-12-20T10:47:25;5.90;99.90
7654;DHT22;3869;48.406;10.774;2023-12-20T10:49:54;5.80;99.90
7654;DHT22;3869;48.406;10.774;2023-12-20T10:52:24;5.60;99.90
7654;DHT22;3869;48.406;10.774;2023-12-20T10:54:55;5.50;99.90
7654;DHT22;3869;48.406;10.774;2023-12-20T10:57:23;5.40;99.90
7654;DHT22;3869;48.406;10.774;2023-12-20T10:59:54;5.30;99.90
7654;DHT22;3869;48.406;10.774;2023-12-20T11:02:25;5.30;99.90
7654;DHT22;3869;48.406;10.774;2023-12-20T11:04:56;5.20;99.90
7654;DHT22;3869;48.406;10.774;2023-12-20T11:07:32;5.20;99.90
7654;DHT22;3869;48.406;10.774;2023-12-20T11:10:10;5.10;99.90
7654;DHT22;3869;48.406;10.774;2023-12-20T11:12:46;5.10;99.90
7654;DHT22;3869;48.406;10.774;2023-12-20T11:15:15;5.10;99.90
7654;DHT22;3869;48.406;10.774;2023-12-20T11:17:45;5.10;99.90
7654;DHT22;3869;48.406;10.774;2023-12-20T11:20:18;5.20;99.90
7654;DHT22;3869;48.406;10.774;2023-12-20T11:22:53;5.10;99.90
7654;DHT22;3869;48.406;10.774;2023-12-20T11:25:24;5.10;99.90
7654;DHT22;3869;48.406;10.774;2023-12-20T11:28:20;5.10;99.90
7654;DHT22;3869;48.406;10.774;2023-12-20T11:30:50;5.10;99.90
7654;DHT22;3869;48.406;10.774;2023-12-20T11:33:21;5.20;99.90
7654;DHT22;3869;48.406;10.774;2023-12-20T11:35:55;5.20;99.90
7654;DHT22;3869;48.406;10.774;2023-12-20T11:38:24;5.20;99.90
7654;DHT22;3869;48.406;10.774;2023-12-20T11:40:55;5.30;99.90
7654;DHT22;3869;48.406;10.774;2023-12-20T11:43:30;5.30;99.90
7654;DHT22;3869;48.406;10.774;2023-12-20T11:46:03;5.30;99.90
7654;DHT22;3869;48.406;10.774;2023-12-20T11:48:33;5.40;99.90
7654;DHT22;3869;48.406;10.774;2023-12-20T11:51:02;5.50;99.90
7654;DHT22;3869;48.406;10.774;2023-12-20T11:53:30;5.40;99.90
7654;DHT22;3869;48.406;10.774;2023-12-20T11:56:02;5.50;99.90
7654;DHT22;3869;48.406;10.774;2023-12-20T11:58:30;5.50;99.90
7654;DHT22;3869;48.406;10.774;2023-12-20T12:00:58;5.40;99.90
7654;DHT22;3869;48.406;10.774;2023-12-20T12:03:26;5.40;99.90
7654;DHT22;3869;48.406;10.774;2023-12-20T12:05:54;5.40;99.90
7654;DHT22;3869;48.406;10.774;2023-12-20T12:08:22;5.40;99.90
7654;DHT22;3869;48.406;10.774;2023-12-20T12:10:51;5.30;99.90
7654;DHT22;3869;48.406;10.774;2023-12-20T12:13:20;5.30;99.90
7654;DHT22;3869;48.406;10.774;2023-12-20T12:15:48;5.30;99.90
7654;DHT22;3869;48.406;10.774;2023-12-20T12:18:17;5.20;99.90
7654;DHT22;3869;48.406;10.774;2023-12-20T12:20:45;5.10;99.90
7654;DHT22;3869;48.406;10.774;2023-12-20T12:23:14;5.10;99.90
7654;DHT22;3869;48.406;10.774;2023-12-20T12:25:42;5.10;99.90
7654;DHT22;3869;48.406;10.774;2023-12-20T12:28:10;5.00;99.90
7654;DHT22;3869;48.406;10.774;2023-12-20T12:30:40;5.10;99.90
7654;DHT22;3869;48.406;10.774;2023-12-20T12:33:19;5.20;99.90
7654;DHT22;3869;48.406;10.774;2023-12-20T12:35:48;5.20;99.90
7654;DHT22;3869;48.406;10.774;2023-12-20T12:38:16;5.10;99.90
7654;DHT22;3869;48.406;10.774;2023-12-20T12:40:44;5.10;99.90
7654;DHT22;3869;48.406;10.774;2023-12-20T12:43:12;5.00;99.90
7654;DHT22;3869;48.406;10.774;2023-12-20T12:45:41;5.00;99.90
7654;DHT22;3869;48.406;10.774;2023-12-20T12:48:10;5.00;99.90
7654;DHT22;3869;48.406;10.774;2023-12-20T12:50:38;5.10;99.90
7654;DHT22;3869;48.406;10.774;2023-12-20T12:53:06;5.10;99.90
7654;DHT22;3869;48.406;10.774;2023-12-20T12:55:35;5.10;99.90
7654;DHT22;3869;48.406;10.774;2023-12-20T12:58:03;5.10;99.90
7654;DHT22;3869;48.406;10.774;2023-12-20T13:00:32;5.10;99.90
7654;DHT22;3869;48.406;10.774;2023-12-20T13:03:02;5.10;99.90
7654;DHT22;3869;48.406;10.774;2023-12-20T13:05:30;5.20;99.90
7654;DHT22;3869;48.406;10.774;2023-12-20T13:08:05;5.20;99.90
7654;DHT22;3869;48.406;10.774;2023-12-20T13:10:33;5.20;99.90
7654;DHT22;3869;48.406;10.774;2023-12-20T13:13:01;5.20;99.90
7654;DHT22;3869;48.406;10.774;2023-12-20T13:15:30;5.20;99.90
7654;DHT22;3869;48.406;10.774;2023-12-20T13:17:58;5.20;99.90
7654;DHT22;3869;48.406;10.774;2023-12-20T13:20:29;5.20;99.90
7654;DHT22;3869;48.406;10.774;2023-12-20T13:22:57;5.10;99.90
7654;DHT22;3869;48.406;10.774;2023-12-20T13:25:25;5.10;99.90
7654;DHT22;3869;48.406;10.774;2023-12-20T13:27:53;5.10;99.90
7654;DHT22;3869;48.406;10.774;2023-12-20T13:30:21;5.10;99.90
7654;DHT22;3869;48.406;10.774;2023-12-20T13:32:49;5.10;99.90
7654;DHT22;3869;48.406;10.774;2023-12-20T13:35:18;5.10;99.90
7654;DHT22;3869;48.406;10.774;2023-12-20T13:37:48;5.10;99.90
7654;DHT22;3869;48.406;10.774;2023-12-20T13:40:17;5.10;99.90
7654;DHT22;3869;48.406;10.774;2023-12-20T13:42:45;5.10;99.90
7654;DHT22;3869;48.406;10.774;2023-12-20T13:45:13;5.10;99.90
7654;DHT22;3869;48.406;10.774;2023-12-20T13:47:41;5.10;99.90
7654;DHT22;3869;48.406;10.774;2023-12-20T13:50:09;5.10;99.90
7654;DHT22;3869;48.406;10.774;2023-12-20T13:52:38;5.10;99.90
7654;DHT22;3869;48.406;10.774;2023-12-20T13:55:09;5.10;99.90
7654;DHT22;3869;48.406;10.774;2023-12-20T13:57:37;5.10;99.90
7654;DHT22;3869;48.406;10.774;2023-12-20T14:00:10;5.20;99.90
7654;DHT22;3869;48.406;10.774;2023-12-20T14:02:41;5.30;99.90
7654;DHT22;3869;48.406;10.774;2023-12-20T14:05:09;5.40;99.90
7654;DHT22;3869;48.406;10.774;2023-12-20T14:07:38;5.60;99.90
7654;DHT22;3869;48.406;10.774;2023-12-20T14:10:08;5.60;99.90
7654;DHT22;3869;48.406;10.774;2023-12-20T14:12:37;5.70;99.90
7654;DHT22;3869;48.406;10.774;2023-12-20T14:15:06;5.80;99.90
7654;DHT22;3869;48.406;10.774;2023-12-20T14:17:37;5.80;99.90
7654;DHT22;3869;48.406;10.774;2023-12-20T14:20:06;5.80;99.90
7654;DHT22;3869;48.406;10.774;2023-12-20T14:22:35;5.80;99.90
7654;DHT22;3869;48.406;10.774;2023-12-20T14:25:07;5.80;99.90
7654;DHT22;3869;48.406;10.774;2023-12-20T14:27:37;5.80;99.90
7654;DHT22;3869;48.406;10.774;2023-12-20T14:30:06;5.80;99.90
7654;DHT22;3869;48.406;10.774;2023-12-20T14:32:35;5.90;99.90
7654;DHT22;3869;48.406;10.774;2023-12-20T14:35:05;5.80;99.90
7654;DHT22;3869;48.406;10.774;2023-12-20T14:37:35;5.80;99.90
7654;DHT22;3869;48.406;10.774;2023-12-20T14:40:08;5.90;99.90
7654;DHT22;3869;48.406;10.774;2023-12-20T14:42:41;5.80;99.90
7654;DHT22;3869;48.406;10.774;2023-12-20T14:45:09;5.80;99.90
7654;DHT22;3869;48.406;10.774;2023-12-20T14:47:37;5.80;99.90
7654;DHT22;3869;48.406;10.774;2023-12-20T14:50:07;5.80;99.90
7654;DHT22;3869;48.406;10.774;2023-12-20T14:52:35;5.70;99.90
7654;DHT22;3869;48.406;10.774;2023-12-20T14:55:04;5.70;99.90
7654;DHT22;3869;48.406;10.774;2023-12-20T14:57:33;5.70;99.90
7654;DHT22;3869;48.406;10.774;2023-12-20T15:00:02;5.70;99.90
7654;DHT22;3869;48.406;10.774;2023-12-20T15:02:30;5.70;99.90
7654;DHT22;3869;48.406;10.774;2023-12-20T15:04:59;5.70;99.90
7654;DHT22;3869;48.406;10.774;2023-12-20T15:07:27;5.70;99.90
7654;DHT22;3869;48.406;10.774;2023-12-20T15:09:56;5.80;99.90
7654;DHT22;3869;48.406;10.774;2023-12-20T15:12:24;5.80;99.90
7654;DHT22;3869;48.406;10.774;2023-12-20T15:14:53;5.90;99.90
7654;DHT22;3869;48.406;10.774;2023-12-20T15:17:21;5.90;99.90
7654;DHT22;3869;48.406;10.774;2023-12-20T15:19:49;5.90;99.90
7654;DHT22;3869;48.406;10.774;2023-12-20T15:22:17;5.90;99.90
7654;DHT22;3869;48.406;10.774;2023-12-20T15:24:45;5.80;99.90
7654;DHT22;3869;48.406;10.774;2023-12-20T15:27:14;5.70;99.90
7654;DHT22;3869;48.406;10.774;2023-12-20T15:29:43;5.60;99.90
7654;DHT22;3869;48.406;10.774;2023-12-20T15:32:12;5.40;99.90
7654;DHT22;3869;48.406;10.774;2023-12-20T15:34:40;5.20;99.90
7654;DHT22;3869;48.406;10.774;2023-12-20T15:37:08;5.10;99.90
7654;DHT22;3869;48.406;10.774;2023-12-20T15:39:37;5.00;99.90
7654;DHT22;3869;48.406;10.774;2023-12-20T15:42:05;4.90;99.90
7654;DHT22;3869;48.406;10.774;2023-12-20T15:44:33;4.80;99.90
7654;DHT22;3869;48.406;10.774;2023-12-20T15:47:01;4.70;99.90
7654;DHT22;3869;48.406;10.774;2023-12-20T15:49:30;4.70;99.90
7654;DHT22;3869;48.406;10.774;2023-12-20T15:51:58;4.60;99.90
7654;DHT22;3869;48.406;10.774;2023-12-20T15:54:29;4.60;99.90
7654;DHT22;3869;48.406;10.774;2023-12-20T15:56:57;4.60;99.90
7654;DHT22;3869;48.406;10.774;2023-12-20T15:59:25;4.60;99.90
7654;DHT22;3869;48.406;10.774;2023-12-20T16:01:53;4.60;99.90
7654;DHT22;3869;48.406;10.774;2023-12-20T16:04:21;4.60;99.90
7654;DHT22;3869;48.406;10.774;2023-12-20T16:06:51;4.70;99.90
7654;DHT22;3869;48.406;10.774;2023-12-20T16:09:19;4.70;99.90
7654;DHT22;3869;48.406;10.774;2023-12-20T16:11:47;4.60;99.90
7654;DHT22;3869;48.406;10.774;2023-12-20T16:14:15;4.70;99.90
7654;DHT22;3869;48.406;10.774;2023-12-20T16:16:45;4.70;99.90